createdAt,value
2016-09-20T00:02:42.602Z,-80
2016-09-20T00:12:46.406Z,-81
2016-09-20T00:17:43.181Z,-81
2016-09-20T00:22:42.177Z,-80
2016-09-20T00:27:38.954Z,-81
2016-09-20T00:32:35.615Z,-80
2016-09-20T00:37:33.547Z,-80
2016-09-20T00:42:30.604Z,-80
2016-09-20T00:47:30.695Z,-80
2016-09-20T00:52:30.528Z,-80
2016-09-20T00:57:28.886Z,-81
2016-09-20T01:02:25.374Z,-80
2016-09-20T01:07:22.230Z,-81
2016-09-20T01:12:21.044Z,-80
2016-09-20T01:22:22.799Z,-80
2016-09-20T01:27:19.967Z,-81
2016-09-20T01:32:17.219Z,-80
2016-09-20T01:37:17.053Z,-80
2016-09-20T01:42:13.644Z,-81
2016-09-20T01:47:13.173Z,-81
2016-09-20T02:07:33.004Z,-80
2016-09-20T02:12:34.339Z,-81
2016-09-20T02:17:32.315Z,-80
2016-09-20T02:22:28.908Z,-80
2016-09-20T02:27:25.779Z,-80
2016-09-20T02:37:28.294Z,-80
2016-09-20T02:42:27.716Z,-81
2016-09-20T02:47:26.264Z,-81
2016-09-20T02:52:23.181Z,-83
2016-09-20T02:57:21.582Z,-80
2016-09-20T03:07:23.599Z,-81
2016-09-20T03:12:21.682Z,-80
2016-09-20T03:22:22.472Z,-78
2016-09-20T03:27:20.592Z,-80
2016-09-20T03:37:21.965Z,-80
2016-09-20T03:42:19.028Z,-81
2016-09-20T03:52:20.813Z,-80
2016-09-20T03:57:18.302Z,-81
2016-09-20T04:07:15.499Z,-80
2016-09-20T04:12:12.278Z,-80
2016-09-20T04:17:09.319Z,-80
2016-09-20T04:22:06.239Z,-80
2016-09-20T04:27:03.126Z,-80
2016-09-20T04:32:00.331Z,-79
2016-09-20T04:36:58.395Z,-80
2016-09-20T04:51:58.881Z,-80
2016-09-20T04:56:55.493Z,-80
2016-09-20T05:01:52.962Z,-80
2016-09-20T05:06:49.869Z,-82
2016-09-20T05:11:47.899Z,-81
2016-09-20T05:16:44.262Z,-80
2016-09-20T05:21:41.344Z,-80
2016-09-20T05:26:37.850Z,-80
2016-09-20T05:31:34.748Z,-80
2016-09-20T05:36:33.651Z,-81
2016-09-20T05:41:30.058Z,-80
2016-09-20T05:46:27.123Z,-81
2016-09-20T05:51:23.623Z,-81
2016-09-20T05:56:20.240Z,-80
2016-09-20T06:01:17.244Z,-80
2016-09-20T06:06:14.009Z,-80
2016-09-20T06:11:10.658Z,-81
2016-09-20T06:16:08.133Z,-79
2016-09-20T06:21:05.020Z,-81
2016-09-20T06:26:01.650Z,-81
2016-09-20T06:31:06.753Z,-82
2016-09-20T06:36:04.384Z,-80
2016-09-20T06:46:02.969Z,-81
2016-09-20T06:50:59.490Z,-82
2016-09-20T06:55:56.223Z,-82
2016-09-20T07:05:54.383Z,-83
2016-09-20T07:10:52.862Z,-83
2016-09-20T07:20:53.905Z,-83
2016-09-20T07:25:51.234Z,-83
2016-09-20T07:35:59.177Z,-82
2016-09-20T07:46:00.559Z,-83
2016-09-20T07:51:01.822Z,-84
2016-09-20T08:01:04.447Z,-82
2016-09-20T08:06:00.202Z,-82
2016-09-20T08:10:59.302Z,-83
2016-09-20T08:15:55.771Z,-79
2016-09-20T08:20:52.884Z,-79
2016-09-20T08:25:49.928Z,-81
2016-09-20T08:30:47.677Z,-82
2016-09-20T08:45:53.012Z,-79
2016-09-20T08:50:49.825Z,-81
2016-09-20T09:00:49.772Z,-79
2016-09-20T09:05:46.783Z,-76
2016-09-20T09:15:56.546Z,-79
2016-09-20T09:20:54.900Z,-80
2016-09-20T09:30:57.526Z,-77
2016-09-20T09:35:53.876Z,-78
2016-09-20T09:45:54.363Z,-76
2016-09-20T09:55:54.283Z,-77
2016-09-20T10:00:52.690Z,-74
2016-09-20T10:05:49.581Z,-74
2016-09-20T10:10:46.853Z,-73
2016-09-20T10:15:46.250Z,-76
2016-09-20T10:35:55.118Z,-77
2016-09-20T10:40:52.032Z,-78
2016-09-20T10:45:50.891Z,-77
2016-09-20T10:55:52.790Z,-76
2016-09-20T11:00:52.632Z,-80
2016-09-20T11:05:50.179Z,-80
2016-09-20T11:10:49.516Z,-79
2016-09-20T11:20:52.217Z,-77
2016-09-20T11:46:03.089Z,-76
2016-09-20T11:50:59.957Z,-76
2016-09-20T12:06:02.085Z,-77
2016-09-20T12:16:05.758Z,-78
2016-09-20T12:21:04.207Z,-78
2016-09-20T12:26:00.682Z,-74
2016-09-20T12:31:00.929Z,-78
2016-09-20T12:35:57.295Z,-77
2016-09-20T12:40:54.434Z,-76
2016-09-20T12:50:54.740Z,-76
2016-09-20T13:00:57.048Z,-75
2016-09-20T13:05:54.234Z,-75
2016-09-20T13:10:57.148Z,-79
2016-09-20T13:20:59.354Z,-75
2016-09-20T13:25:57.341Z,-76
2016-09-20T13:36:01.302Z,-76
2016-09-20T13:40:58.940Z,-83
2016-09-20T13:45:55.845Z,-82
2016-09-20T13:50:53.934Z,-81
2016-09-20T13:55:51.470Z,-80
2016-09-20T14:00:49.404Z,-81
2016-09-20T14:05:46.565Z,-79
2016-09-20T14:10:43.360Z,-79
2016-09-20T14:15:43.258Z,-81
2016-09-20T14:25:44.188Z,-80
2016-09-20T14:30:45.202Z,-80
2016-09-20T14:35:42.309Z,-81
2016-09-20T14:40:42.351Z,-81
2016-09-20T14:45:43.772Z,-81
2016-09-20T14:55:51.267Z,-80
2016-09-20T15:05:50.163Z,-82
2016-09-20T15:10:46.410Z,-79
2016-09-20T15:20:48.842Z,-80
2016-09-20T15:25:46.183Z,-81
2016-09-20T15:30:43.785Z,-81
2016-09-20T15:35:43.820Z,-79
2016-09-20T15:40:40.270Z,-80
2016-09-20T15:45:38.468Z,-79
2016-09-20T15:55:41.095Z,-80
2016-09-20T16:00:37.764Z,-84
2016-09-20T16:05:34.712Z,-83
2016-09-20T16:10:32.920Z,-83
2016-09-20T16:15:29.656Z,-81
2016-09-20T16:25:26.762Z,-82
2016-09-20T16:30:24.379Z,-83
2016-09-20T16:35:21.949Z,-81
2016-09-20T16:40:19.003Z,-83
2016-09-20T16:45:16.867Z,-80
2016-09-20T16:50:15.569Z,-82
2016-09-20T16:55:11.923Z,-82
2016-09-20T17:00:10.215Z,-81
2016-09-20T17:05:07.699Z,-82
2016-09-20T17:10:05.582Z,-82
2016-09-20T17:15:05.713Z,-84
2016-09-20T17:20:02.164Z,-82
2016-09-20T17:25:00.048Z,-83
2016-09-20T17:29:57.427Z,-83
2016-09-20T17:34:54.592Z,-82
2016-09-20T17:39:51.638Z,-83
2016-09-20T17:44:51.385Z,-81
2016-09-20T17:49:47.938Z,-84
2016-09-20T17:54:48.377Z,-84
2016-09-20T17:59:44.519Z,-83
2016-09-20T18:04:42.137Z,-83
2016-09-20T18:14:42.793Z,-83
2016-09-20T18:19:40.332Z,-84
2016-09-20T18:24:36.427Z,-80
2016-09-20T18:29:32.878Z,-78
2016-09-20T18:34:29.545Z,-82
2016-09-20T18:39:26.097Z,-84
2016-09-20T18:44:22.988Z,-82
2016-09-20T18:49:20.003Z,-82
2016-09-20T18:54:17.122Z,-84
2016-09-20T18:59:15.195Z,-83
2016-09-20T19:04:11.800Z,-80
2016-09-20T19:09:08.775Z,-82
2016-09-20T19:14:05.433Z,-85
2016-09-20T19:19:02.078Z,-83
2016-09-20T19:23:59.357Z,-80
2016-09-20T19:28:55.500Z,-84
2016-09-20T19:33:52.049Z,-84
2016-09-20T19:38:53.136Z,-82
2016-09-20T19:43:49.933Z,-85
2016-09-20T19:48:46.753Z,-83
2016-09-20T19:53:43.765Z,-81
2016-09-20T19:58:40.390Z,-83
2016-09-20T20:03:36.983Z,-79
2016-09-20T20:08:34.891Z,-83
2016-09-20T20:13:31.504Z,-83
2016-09-20T20:18:27.993Z,-81
2016-09-20T20:23:24.451Z,-85
2016-09-20T20:28:20.648Z,-86
2016-09-20T20:33:17.499Z,-84
2016-09-20T20:38:14.141Z,-89
2016-09-20T20:43:13.120Z,-88
2016-09-20T20:48:09.297Z,-86
2016-09-20T20:53:06.103Z,-86
2016-09-20T20:58:02.779Z,-83
2016-09-20T21:03:01.240Z,-85
2016-09-20T21:08:00.862Z,-85
2016-09-20T21:12:56.821Z,-84
2016-09-20T21:17:53.970Z,-85
2016-09-20T21:22:50.810Z,-86
2016-09-20T21:27:47.207Z,-84
2016-09-20T21:32:43.879Z,-85
2016-09-20T21:37:40.944Z,-85
2016-09-20T21:42:37.236Z,-86
2016-09-20T21:47:39.458Z,-85
2016-09-20T21:52:38.228Z,-84
2016-09-20T21:57:34.325Z,-83
2016-09-20T22:02:30.675Z,-84
2016-09-20T22:07:27.061Z,-84
2016-09-20T22:12:24.089Z,-84
2016-09-20T22:17:20.950Z,-84
2016-09-20T22:22:17.632Z,-86
2016-09-20T22:27:14.290Z,-83
2016-09-20T22:32:11.533Z,-84
2016-09-20T22:37:09.207Z,-86
2016-09-20T22:42:06.458Z,-85
2016-09-20T22:47:03.224Z,-84
2016-09-20T22:51:59.690Z,-84
2016-09-20T22:56:56.434Z,-84
2016-09-20T23:01:52.970Z,-83
2016-09-20T23:06:49.561Z,-84
2016-09-20T23:11:46.477Z,-84
2016-09-20T23:16:43.073Z,-84
2016-09-20T23:21:39.608Z,-84
2016-09-20T23:26:37.057Z,-84
2016-09-20T23:31:33.603Z,-84
2016-09-20T23:36:31.480Z,-84
2016-09-20T23:41:27.726Z,-84
2016-09-20T23:46:24.239Z,-84
2016-09-20T23:51:21.283Z,-84
2016-09-20T23:56:18.759Z,-85
